Scroll down
FLIGHT INFORMATION
PMDG Flight Operations

PFO3605

At Arrival Gate

KTPA
 KRFD
DATE: 2020-06-10
GATE:  -
GATE DEPARTURE: 14:23
TAKEOFF: 14:31
DATE: 2020-06-10
GATE:  -
LANDING: 16:41
GATE ARRIVAL: 16:44
FLIGHT DATA
Crew: 
Speed: 
474 kts
Altitude: 
38,020 ft
Stage Length: 
911.9 nm
Block Time: 
2.4 hrs
Flight Time: 
2.2 hrs
Fuel Used: 
12,612 lb
Cleared Route: KTPA LACEN BRUTS JAMIZ JOHNN ATL BWG TTH JOT QUOTE KRFD
TRACK DATA
50,000 ft 1,000 kts
AIRCRAFT INFO AND CUMULATIVE STATS
Aircraft Type: 
B738BW
Registration: 
SELCAL: 
MSN/LN: 
0 / 1
Total Flights: 
13
Total Block Time: 
27.1 hrs
Total Flight Time: 
24.3 hrs
Total Fuel Time: 
168,735 lb
DATALINK LOG | Newest first | Current as of: 2020-11-27 20:20:42
LABEL SEQUENCE CONTENT Dn/Up
QD400116:44 6.5▼ Dn
QC380016:41▼ Dn
QB275814:31▼ Dn
QA195014:23 19.1▼ Dn
A30949CLEARED TO KRFD VIA ENDED8 LACEN BRUTS Q118 ATL BWG TTH JOT QUOTE. SQUAWK 1031.▲ Up
2U0948KORD 101551Z 16007KT 10SM FEW020 SCT045 SCT250 26/21 A2948 RMK AO2 LTG DSNT N AND NE SLP978 CB DSNT NE T02610211▲ Up
2U0948KTPA 101553Z 12005KT 10SM FEW045 SCT160 32/19 A3004 RMK AO2 SLP171 T03170194▲ Up
2U0947KRFD 101554Z 17010G19KT 10SM FEW025 28/21 A2946 RMK AO2 SLP969 T02780206▲ Up
2S0947KTPA KRFD KORD▼ Dn
Q00839[LINK ACK]▲ Up
Q00839[LINK TEST]▼ Dn


AIRCRAFT HISTORY
FLIGHT DATE FLIGHT NO. ORIGIN DESTINATION CLEARED ROUTE BLOCK TIME FLIGHT TIME FUEL USED PILOT
2020-08-09PFO809KPHX KSJC KPHX HRRBR CURIV DECAS BOILE AVE MAKRS TROXX KSJC2.1 hrs1.6 hrs11,122 lbKurt Kalbfleisch
2020-08-09PFO809KSFO KPHX KSFO LOSHN BOILE BLH KPHX2.4 hrs1.6 hrs38,055 lbKurt Kalbfleisch
2020-07-11PFO711KSJC KSFO KSJC HEMAN RW28L0.4 hrs0.2 hrs1,375 lbKyle Weber
2020-07-03PFO702KBUR KSJC KBUR TILLR OROSZ BRRKK MDWAY COREZ MAKRS TROXX SILCN VLLEY GUUYY WLSSN GSTEE KLIDE JENES RW30L1.3 hrs1 hrs6,577 lbKyle Weber
2020-06-27PFO627KPSP KBUR KPSP GARNE LAX RW080.7 hrs0.5 hrs3,420 lbKyle Weber
2020-06-19PFO619KLAX KPSP KLAX SLI TUSTI HEMET TRM KPSP0.7 hrs0.5 hrs3,599 lbKyle Weber
2020-06-14PFO614KONT KLAX KONT MERCE RW24R0.6 hrs0.2 hrs2,071 lbKyle Weber
2020-06-10PFO3621KRFD KONT 3.8 hrs3.7 hrs20,114 lbAllan Burek
2020-06-10PFO3605KTPA KRFD KTPA LACEN BRUTS JAMIZ JOHNN ATL BWG TTH JOT QUOTE KRFD2.4 hrs2.2 hrs12,612 lbAllan Burek
2020-06-09PFO3627KPDX KTPA KPDX PEGTY KELYY WANOS TOSEH WHAMY IMB DNJ DBS MBW HLC ICT RZC LIT IVLUH HEVVN KTPA5.3 hrs5 hrs26,756 lbAllan Burek
2020-02-08PFO3609KIAH KPDX 4.6 hrs4.3 hrs23,288 lbAllan Burek
2020-02-07PFO3607KTPA KIAH 2.5 hrs2.2 hrs12,680 lbAllan Burek
2020-02-07PFO3605KATL KTPA 1.6 hrs1.4 hrs7,067 lbAllan Burek